Time;durP1;ratioP1;P1;durP2;ratioP2;P2;SDS_P1;SDS_P2;PMS_P1;PMS_P2;Temp;Humidity;BMP_temperature;BMP_pressure;BME280_temperature;BME280_humidity;BME280_pressure;Samples;Min_cycle;Max_cycle;Signal;HPM_P1;HPM_P2
2023/09/06 00:00:43;;;;;;;3.87;3.33;;;;;;;;;;5036553;28;20495;-61
2023/09/06 00:03:10;;;;;;;4.17;3.00;;;;;;;;;;5036787;28;20434;-61
2023/09/06 00:05:41;;;;;;;3.80;3.27;;;;;;;;;;5036487;28;20748;-61
2023/09/06 00:08:08;;;;;;;11.07;3.63;;;;;;;;;;5036672;28;20537;-61
2023/09/06 00:10:38;;;;;;;5.07;3.80;;;;;;;;;;5036300;28;20866;-61
2023/09/06 00:13:06;;;;;;;5.00;3.73;;;;;;;;;;5036425;28;20465;-61
2023/09/06 00:15:33;;;;;;;4.90;4.03;;;;;;;;;;5036299;28;20485;-61
2023/09/06 00:18:00;;;;;;;4.93;4.10;;;;;;;;;;5035727;28;20452;-61
2023/09/06 00:20:29;;;;;;;6.83;4.50;;;;;;;;;;5035955;28;20809;-61
2023/09/06 00:22:59;;;;;;;5.87;4.70;;;;;;;;;;5035862;28;20442;-61
2023/09/06 00:25:26;;;;;;;4.40;4.00;;;;;;;;;;5036056;28;20525;-62
2023/09/06 00:27:54;;;;;;;5.80;4.47;;;;;;;;;;5035297;28;20453;-61
2023/09/06 00:30:21;;;;;;;5.47;4.20;;;;;;;;;;5036179;28;20461;-61
2023/09/06 00:32:52;;;;;;;8.60;4.40;;;;;;;;;;5035951;28;20535;-61
2023/09/06 00:35:20;;;;;;;9.07;5.93;;;;;;;;;;5036546;28;20467;-61
2023/09/06 00:37:47;;;;;;;6.43;4.60;;;;;;;;;;5035626;28;20433;-62
2023/09/06 00:40:18;;;;;;;5.40;4.10;;;;;;;;;;5035676;28;20481;-61
2023/09/06 00:42:47;;;;;;;4.47;3.93;;;;;;;;;;5035544;28;20465;-61
2023/09/06 00:45:15;;;;;;;5.30;4.33;;;;;;;;;;5035590;28;20818;-61
2023/09/06 00:47:43;;;;;;;5.13;4.20;;;;;;;;;;5035595;28;20499;-61
2023/09/06 00:50:14;;;;;;;6.73;4.47;;;;;;;;;;5035355;28;20473;-61
2023/09/06 00:52:41;;;;;;;7.27;4.30;;;;;;;;;;5035717;28;20438;-61
2023/09/06 00:55:10;;;;;;;6.03;4.63;;;;;;;;;;5035243;28;20575;-61
2023/09/06 00:57:40;;;;;;;6.40;4.40;;;;;;;;;;5035550;28;20490;-62
2023/09/06 01:00:13;;;;;;;6.80;4.73;;;;;;;;;;5035692;28;20559;-62
2023/09/06 01:02:41;;;;;;;5.33;4.83;;;;;;;;;;5036113;28;20548;-62
2023/09/06 01:05:09;;;;;;;5.30;4.30;;;;;;;;;;5035555;28;20447;-61
2023/09/06 01:07:37;;;;;;;6.17;4.43;;;;;;;;;;5034880;28;20455;-61
2023/09/06 01:10:04;;;;;;;5.43;4.93;;;;;;;;;;5035255;28;20468;-62
2023/09/06 01:12:34;;;;;;;7.73;4.90;;;;;;;;;;5035326;28;20441;-61
2023/09/06 01:15:04;;;;;;;5.93;4.77;;;;;;;;;;5035276;28;20957;-62
2023/09/06 01:17:33;;;;;;;4.57;4.17;;;;;;;;;;5035391;28;20790;-61
2023/09/06 01:20:05;;;;;;;4.87;4.40;;;;;;;;;;5035107;28;20485;-61
2023/09/06 01:22:36;;;;;;;5.30;4.30;;;;;;;;;;5035072;28;20437;-61
2023/09/06 01:25:04;;;;;;;6.20;4.87;;;;;;;;;;5035149;28;20451;-61
2023/09/06 01:27:32;;;;;;;5.73;3.93;;;;;;;;;;5035121;28;20532;-61
2023/09/06 01:29:59;;;;;;;6.30;4.60;;;;;;;;;;5034671;28;20477;-61
2023/09/06 01:32:27;;;;;;;5.50;5.00;;;;;;;;;;5035181;28;20894;-61
2023/09/06 01:34:54;;;;;;;6.13;4.43;;;;;;;;;;5034642;28;20508;-61
2023/09/06 01:37:21;;;;;;;6.10;4.63;;;;;;;;;;5035061;28;20531;-60
2023/09/06 01:39:49;;;;;;;6.00;4.30;;;;;;;;;;5034823;28;20452;-61
2023/09/06 01:42:22;;;;;;;4.93;4.43;;;;;;;;;;5035235;28;20523;-60
2023/09/06 01:44:49;;;;;;;6.53;4.13;;;;;;;;;;5034692;28;20424;-60
2023/09/06 01:47:16;;;;;;;5.60;5.00;;;;;;;;;;5034679;28;20495;-61
2023/09/06 01:49:44;;;;;;;7.07;5.20;;;;;;;;;;5034407;28;20442;-61
2023/09/06 01:52:12;;;;;;;7.67;4.77;;;;;;;;;;5034576;28;20452;-61
2023/09/06 01:54:39;;;;;;;5.33;4.30;;;;;;;;;;5034270;28;20527;-61
2023/09/06 01:57:08;;;;;;;5.13;4.63;;;;;;;;;;5034133;28;20539;-61
2023/09/06 01:59:36;;;;;;;5.30;4.80;;;;;;;;;;5034338;28;20467;-61
2023/09/06 02:02:04;;;;;;;6.73;5.33;;;;;;;;;;5033742;28;20998;-61
2023/09/06 02:04:31;;;;;;;7.10;4.87;;;;;;;;;;5033935;28;20452;-61
2023/09/06 02:06:58;;;;;;;6.90;6.20;;;;;;;;;;5034410;28;20874;-61
2023/09/06 02:09:26;;;;;;;7.00;5.00;;;;;;;;;;5033957;28;20468;-61
2023/09/06 02:11:55;;;;;;;6.67;4.33;;;;;;;;;;5033933;28;20441;-61
2023/09/06 02:14:22;;;;;;;7.60;4.70;;;;;;;;;;5033620;28;20976;-61
2023/09/06 02:16:51;;;;;;;6.53;5.43;;;;;;;;;;5033649;28;20449;-61
2023/09/06 02:19:19;;;;;;;4.83;4.40;;;;;;;;;;5034024;28;20776;-61
2023/09/06 02:21:46;;;;;;;5.27;4.77;;;;;;;;;;5033462;28;20599;-61
2023/09/06 02:24:14;;;;;;;7.67;4.87;;;;;;;;;;5033491;28;20438;-61
2023/09/06 02:26:41;;;;;;;5.30;4.90;;;;;;;;;;5033639;28;20915;-61
2023/09/06 02:29:08;;;;;;;5.87;5.20;;;;;;;;;;5033412;28;20523;-61
2023/09/06 02:31:37;;;;;;;7.57;5.40;;;;;;;;;;5033387;28;20916;-61
2023/09/06 02:34:06;;;;;;;6.73;6.03;;;;;;;;;;5033412;28;20457;-61
2023/09/06 02:36:33;;;;;;;6.27;5.10;;;;;;;;;;5033287;28;20443;-61
2023/09/06 02:39:00;;;;;;;9.53;6.20;;;;;;;;;;5033471;28;20841;-61
2023/09/06 02:41:29;;;;;;;7.73;6.10;;;;;;;;;;5033404;28;20511;-61
2023/09/06 02:43:57;;;;;;;10.63;6.60;;;;;;;;;;5033526;28;20839;-61
2023/09/06 02:46:29;;;;;;;13.30;5.70;;;;;;;;;;5033507;28;20644;-61
2023/09/06 02:48:58;;;;;;;6.40;5.23;;;;;;;;;;5033643;28;20485;-61
2023/09/06 02:51:29;;;;;;;6.50;5.73;;;;;;;;;;5034269;28;20475;-61
2023/09/06 02:53:57;;;;;;;7.10;6.03;;;;;;;;;;5033242;28;20482;-61
2023/09/06 02:56:24;;;;;;;7.83;5.90;;;;;;;;;;5033136;28;20445;-62
2023/09/06 02:58:51;;;;;;;9.47;6.50;;;;;;;;;;5033252;28;20462;-63
2023/09/06 03:01:20;;;;;;;7.43;6.70;;;;;;;;;;5032974;28;20485;-60
2023/09/06 03:03:51;;;;;;;6.00;5.50;;;;;;;;;;5033168;28;20448;-60
2023/09/06 03:06:18;;;;;;;6.17;5.60;;;;;;;;;;5033363;28;20426;-61
2023/09/06 03:08:47;;;;;;;7.17;6.10;;;;;;;;;;5033009;28;20772;-60
2023/09/06 03:11:15;;;;;;;5.90;5.40;;;;;;;;;;5032874;28;20442;-60
2023/09/06 03:13:42;;;;;;;6.30;5.80;;;;;;;;;;5032613;28;20451;-62
2023/09/06 03:16:13;;;;;;;6.60;6.00;;;;;;;;;;5032605;28;20467;-61
2023/09/06 03:18:40;;;;;;;6.67;6.07;;;;;;;;;;5033009;28;20509;-61
2023/09/06 03:21:08;;;;;;;7.33;5.50;;;;;;;;;;5032710;28;20587;-61
2023/09/06 03:23:38;;;;;;;6.50;5.90;;;;;;;;;;5032957;28;20506;-60
2023/09/06 03:26:09;;;;;;;6.07;5.57;;;;;;;;;;5032449;28;20433;-62
2023/09/06 03:28:37;;;;;;;8.00;5.50;;;;;;;;;;5032324;28;20474;-60
2023/09/06 03:31:08;;;;;;;6.10;5.50;;;;;;;;;;5032347;28;20455;-61
2023/09/06 03:33:36;;;;;;;7.43;6.40;;;;;;;;;;5032379;28;20937;-60
2023/09/06 03:36:07;;;;;;;7.40;6.80;;;;;;;;;;5032668;28;20472;-61
2023/09/06 03:38:34;;;;;;;6.63;6.03;;;;;;;;;;5032917;28;20767;-61
2023/09/06 03:41:02;;;;;;;6.67;5.97;;;;;;;;;;5032473;28;20487;-61
2023/09/06 03:43:32;;;;;;;7.70;6.13;;;;;;;;;;5032838;28;20448;-61
2023/09/06 03:46:04;;;;;;;8.20;6.30;;;;;;;;;;5032659;28;20498;-61
2023/09/06 03:48:31;;;;;;;8.87;6.70;;;;;;;;;;5032638;28;20521;-60
2023/09/06 03:51:00;;;;;;;6.43;5.93;;;;;;;;;;5021046;28;20781;-61
2023/09/06 03:53:28;;;;;;;10.93;5.80;;;;;;;;;;5012720;28;20440;-61
2023/09/06 03:55:56;;;;;;;6.73;5.90;;;;;;;;;;5012695;28;20438;-61
2023/09/06 03:58:24;;;;;;;7.83;6.13;;;;;;;;;;5012533;28;20573;-60
2023/09/06 04:00:53;;;;;;;6.60;6.00;;;;;;;;;;5012215;28;21019;-61
2023/09/06 04:03:22;;;;;;;7.30;5.97;;;;;;;;;;5012742;28;20530;-61
2023/09/06 04:05:50;;;;;;;6.10;5.60;;;;;;;;;;5012724;28;20507;-61
2023/09/06 04:08:18;;;;;;;7.10;5.93;;;;;;;;;;5012345;28;20966;-61
2023/09/06 04:10:45;;;;;;;8.33;5.90;;;;;;;;;;5012634;28;20449;-61
2023/09/06 04:13:14;;;;;;;6.27;5.67;;;;;;;;;;5012698;28;20461;-61
2023/09/06 04:15:42;;;;;;;8.17;6.37;;;;;;;;;;5012408;28;20468;-61
2023/09/06 04:18:11;;;;;;;6.63;6.00;;;;;;;;;;5012291;28;20534;-61
2023/09/06 04:20:39;;;;;;;6.83;6.23;;;;;;;;;;5005898;28;20494;-61
2023/09/06 04:23:07;;;;;;;7.00;6.10;;;;;;;;;;4993019;28;20447;-61
2023/09/06 04:25:41;;;;;;;6.87;6.17;;;;;;;;;;4992887;28;20553;-61
2023/09/06 04:28:08;;;;;;;8.63;5.67;;;;;;;;;;4992302;28;20556;-60
2023/09/06 04:30:37;;;;;;;9.50;5.80;;;;;;;;;;4992961;28;20552;-60
2023/09/06 04:33:05;;;;;;;6.63;5.97;;;;;;;;;;4992647;28;20491;-60
2023/09/06 04:35:35;;;;;;;6.50;5.90;;;;;;;;;;4992811;28;20763;-61
2023/09/06 04:38:03;;;;;;;7.53;6.00;;;;;;;;;;4993045;28;20549;-65
2023/09/06 04:40:30;;;;;;;7.33;6.60;;;;;;;;;;4992279;28;20445;-61
2023/09/06 04:42:57;;;;;;;6.97;6.37;;;;;;;;;;4992653;28;20529;-63
2023/09/06 04:45:24;;;;;;;7.50;6.10;;;;;;;;;;4995581;28;20507;-62
2023/09/06 04:47:52;;;;;;;12.27;8.07;;;;;;;;;;4996086;28;20940;-63
2023/09/06 04:50:19;;;;;;;7.93;7.13;;;;;;;;;;4996256;28;20926;-63
2023/09/06 04:52:48;;;;;;;7.27;6.57;;;;;;;;;;4996174;28;20445;-62
2023/09/06 04:55:19;;;;;;;9.90;6.83;;;;;;;;;;4996379;28;20440;-62
2023/09/06 04:57:46;;;;;;;12.70;8.00;;;;;;;;;;4996384;28;20446;-62
2023/09/06 05:00:23;;;;;;;8.53;7.33;;;;;;;;;;4995800;28;21029;-62
2023/09/06 05:02:52;;;;;;;8.50;7.03;;;;;;;;;;4995761;28;20871;-62
2023/09/06 05:05:21;;;;;;;7.13;6.53;;;;;;;;;;4996421;28;20512;-62
2023/09/06 05:07:49;;;;;;;9.53;6.93;;;;;;;;;;4995711;28;20453;-62
2023/09/06 05:10:16;;;;;;;9.00;6.93;;;;;;;;;;4996420;28;20537;-63
2023/09/06 05:12:45;;;;;;;10.07;6.80;;;;;;;;;;4995914;28;20452;-62
2023/09/06 05:15:12;;;;;;;10.53;9.50;;;;;;;;;;4995888;28;20465;-62
2023/09/06 05:17:40;;;;;;;8.50;7.20;;;;;;;;;;4995600;28;20446;-63
2023/09/06 05:20:27;;;;;;;11.47;8.50;;;;;;;;;;4994719;28;20442;-62
2023/09/06 05:22:56;;;;;;;7.70;6.77;;;;;;;;;;4995262;28;20565;-62
2023/09/06 05:25:23;;;;;;;8.13;7.30;;;;;;;;;;4995701;28;20449;-63
2023/09/06 05:27:51;;;;;;;8.70;7.90;;;;;;;;;;4995582;28;20616;-63
2023/09/06 05:30:18;;;;;;;8.63;7.10;;;;;;;;;;4996084;28;20457;-69
2023/09/06 05:32:45;;;;;;;9.00;7.60;;;;;;;;;;4995353;28;20943;-62
2023/09/06 05:35:12;;;;;;;11.47;7.60;;;;;;;;;;4995482;28;20534;-62
2023/09/06 05:37:40;;;;;;;11.03;7.87;;;;;;;;;;4995674;28;20880;-62
2023/09/06 05:40:12;;;;;;;9.13;8.00;;;;;;;;;;4995407;28;20443;-63
2023/09/06 05:42:39;;;;;;;9.00;8.20;;;;;;;;;;4994966;28;20476;-62
2023/09/06 05:45:07;;;;;;;8.10;7.27;;;;;;;;;;4995224;28;20450;-62
2023/09/06 05:47:35;;;;;;;8.30;7.50;;;;;;;;;;4994875;28;20445;-62
2023/09/06 05:50:04;;;;;;;10.37;7.93;;;;;;;;;;4994686;28;20465;-63
2023/09/06 05:52:31;;;;;;;9.27;8.33;;;;;;;;;;4994744;28;20450;-62
2023/09/06 05:54:58;;;;;;;12.63;7.90;;;;;;;;;;4994282;28;20547;-62
2023/09/06 05:57:27;;;;;;;8.90;8.00;;;;;;;;;;4995019;28;20491;-63
2023/09/06 05:59:54;;;;;;;7.50;6.83;;;;;;;;;;4995029;28;20541;-63
2023/09/06 06:02:21;;;;;;;12.80;7.70;;;;;;;;;;4995109;28;20488;-63
2023/09/06 06:04:48;;;;;;;8.97;8.03;;;;;;;;;;4995015;28;20446;-62
2023/09/06 06:07:17;;;;;;;14.27;12.43;;;;;;;;;;4994742;28;20449;-64
2023/09/06 06:09:44;;;;;;;9.80;8.80;;;;;;;;;;4994506;28;20477;-63
2023/09/06 06:12:12;;;;;;;8.63;7.73;;;;;;;;;;4994859;28;20472;-62
2023/09/06 06:14:42;;;;;;;9.20;7.93;;;;;;;;;;4994989;28;20511;-63
2023/09/06 06:17:09;;;;;;;12.50;7.43;;;;;;;;;;4994627;28;20573;-62
2023/09/06 06:19:36;;;;;;;10.67;7.73;;;;;;;;;;4994839;28;20460;-63
2023/09/06 06:22:04;;;;;;;13.97;7.83;;;;;;;;;;4994101;28;20473;-62
2023/09/06 06:24:31;;;;;;;14.40;7.10;;;;;;;;;;4994574;28;20593;-62
2023/09/06 06:26:59;;;;;;;8.53;7.60;;;;;;;;;;4994204;28;20465;-62
2023/09/06 06:29:26;;;;;;;16.33;9.57;;;;;;;;;;4994361;28;20481;-63
2023/09/06 06:31:55;;;;;;;22.20;13.17;;;;;;;;;;4994533;28;20818;-62
2023/09/06 06:34:24;;;;;;;23.00;14.57;;;;;;;;;;4994362;28;20793;-63
2023/09/06 06:36:51;;;;;;;13.47;10.40;;;;;;;;;;4994263;28;20491;-62
2023/09/06 06:39:18;;;;;;;11.40;7.73;;;;;;;;;;4994098;28;20771;-62
2023/09/06 06:41:46;;;;;;;10.23;6.80;;;;;;;;;;4993901;28;20488;-62
2023/09/06 06:44:13;;;;;;;13.23;6.87;;;;;;;;;;4994168;28;20442;-62
2023/09/06 06:46:41;;;;;;;15.57;7.40;;;;;;;;;;4994259;28;20453;-62
2023/09/06 06:49:10;;;;;;;13.30;6.83;;;;;;;;;;4994037;28;20437;-63
2023/09/06 06:51:38;;;;;;;12.70;6.80;;;;;;;;;;4994543;28;20557;-62
2023/09/06 06:54:07;;;;;;;10.10;5.40;;;;;;;;;;4994217;28;20444;-62
2023/09/06 06:56:34;;;;;;;7.47;6.00;;;;;;;;;;4994143;28;20453;-62
2023/09/06 06:59:03;;;;;;;10.80;5.30;;;;;;;;;;4993734;28;20445;-62
2023/09/06 07:01:31;;;;;;;12.07;6.03;;;;;;;;;;4994015;28;20440;-62
2023/09/06 07:03:58;;;;;;;7.00;5.40;;;;;;;;;;4993424;28;20960;-63
2023/09/06 07:06:26;;;;;;;10.30;5.17;;;;;;;;;;4993165;28;20520;-63
2023/09/06 07:08:54;;;;;;;10.27;5.37;;;;;;;;;;4993574;28;20444;-62
2023/09/06 07:11:22;;;;;;;5.27;4.83;;;;;;;;;;4993902;28;20467;-63
2023/09/06 07:13:50;;;;;;;10.23;5.43;;;;;;;;;;4993841;28;20806;-62
2023/09/06 07:16:18;;;;;;;7.10;5.10;;;;;;;;;;4993795;28;20797;-62
2023/09/06 07:18:45;;;;;;;6.40;5.17;;;;;;;;;;4993537;28;20446;-62
2023/09/06 07:21:12;;;;;;;10.97;4.83;;;;;;;;;;4993403;28;20503;-63
2023/09/06 07:23:41;;;;;;;6.63;5.30;;;;;;;;;;4993093;28;21024;-62
2023/09/06 07:26:08;;;;;;;9.20;4.67;;;;;;;;;;4993261;28;20948;-62
2023/09/06 07:28:38;;;;;;;8.80;4.93;;;;;;;;;;4992748;28;20488;-62
2023/09/06 07:31:05;;;;;;;6.53;4.00;;;;;;;;;;4993426;28;20441;-62
2023/09/06 07:33:32;;;;;;;7.87;3.73;;;;;;;;;;4992964;28;20455;-63
2023/09/06 07:36:00;;;;;;;9.47;4.77;;;;;;;;;;4993494;28;20446;-63
2023/09/06 07:38:27;;;;;;;5.90;4.10;;;;;;;;;;4993253;28;20444;-63
2023/09/06 07:40:59;;;;;;;10.00;5.30;;;;;;;;;;4992945;28;21006;-62
2023/09/06 07:43:28;;;;;;;5.10;3.60;;;;;;;;;;4993488;28;20483;-63
2023/09/06 07:45:56;;;;;;;5.57;3.90;;;;;;;;;;4993898;28;20921;-62
2023/09/06 07:48:24;;;;;;;7.50;4.50;;;;;;;;;;4992917;28;20992;-63
2023/09/06 07:50:51;;;;;;;8.47;5.60;;;;;;;;;;4992990;28;20452;-64
2023/09/06 07:53:18;;;;;;;10.47;5.50;;;;;;;;;;4993030;28;20949;-63
2023/09/06 07:55:46;;;;;;;6.77;4.07;;;;;;;;;;4993109;28;20527;-64
2023/09/06 07:58:14;;;;;;;4.87;3.40;;;;;;;;;;4993050;28;20480;-64
2023/09/06 08:00:42;;;;;;;4.30;3.80;;;;;;;;;;4993206;28;20441;-64
2023/09/06 08:03:09;;;;;;;8.70;4.13;;;;;;;;;;4993036;28;20488;-63
2023/09/06 08:05:37;;;;;;;4.47;4.07;;;;;;;;;;4992815;28;20513;-63
2023/09/06 08:08:04;;;;;;;6.50;4.50;;;;;;;;;;4993214;28;20452;-63
2023/09/06 08:10:32;;;;;;;6.87;4.33;;;;;;;;;;4992670;28;21007;-63
2023/09/06 08:12:59;;;;;;;5.03;3.53;;;;;;;;;;4993050;28;20445;-63
2023/09/06 08:15:28;;;;;;;4.60;3.50;;;;;;;;;;4992651;28;20951;-63
2023/09/06 08:17:55;;;;;;;4.50;3.80;;;;;;;;;;4992667;28;20926;-62
2023/09/06 08:20:22;;;;;;;6.70;3.10;;;;;;;;;;4996051;28;20446;-63
2023/09/06 08:22:50;;;;;;;5.27;3.10;;;;;;;;;;4996790;28;20571;-63
2023/09/06 08:25:17;;;;;;;7.90;3.30;;;;;;;;;;4996905;28;20468;-63
2023/09/06 08:27:44;;;;;;;6.77;3.10;;;;;;;;;;4996661;28;20531;-62
2023/09/06 08:30:12;;;;;;;5.10;2.60;;;;;;;;;;4996724;28;20492;-63
2023/09/06 08:32:41;;;;;;;4.03;2.87;;;;;;;;;;4996307;28;20787;-63
2023/09/06 08:35:09;;;;;;;3.53;3.23;;;;;;;;;;4996386;28;20442;-62
2023/09/06 08:37:36;;;;;;;5.00;3.33;;;;;;;;;;4996404;28;20939;-63
2023/09/06 08:40:05;;;;;;;4.10;3.43;;;;;;;;;;4996422;28;20549;-64
2023/09/06 08:42:33;;;;;;;6.73;3.70;;;;;;;;;;4996301;28;20478;-63
2023/09/06 08:45:01;;;;;;;4.03;3.63;;;;;;;;;;4995921;28;20441;-61
2023/09/06 08:47:29;;;;;;;4.63;3.20;;;;;;;;;;4996264;28;20481;-62
2023/09/06 08:49:58;;;;;;;6.83;3.50;;;;;;;;;;4995869;28;20451;-62
2023/09/06 08:52:25;;;;;;;3.77;3.33;;;;;;;;;;4996439;28;20537;-62
2023/09/06 08:54:53;;;;;;;6.20;3.37;;;;;;;;;;4996193;28;20847;-62
2023/09/06 08:57:21;;;;;;;3.80;3.20;;;;;;;;;;4995613;28;20443;-62
2023/09/06 08:59:48;;;;;;;4.63;3.13;;;;;;;;;;4995940;28;20547;-62
2023/09/06 09:02:16;;;;;;;4.10;3.20;;;;;;;;;;4996159;28;20512;-62
2023/09/06 09:04:43;;;;;;;4.73;2.80;;;;;;;;;;4996035;28;20471;-62
2023/09/06 09:07:13;;;;;;;5.73;3.50;;;;;;;;;;4996291;28;20458;-62
2023/09/06 09:09:58;;;;;;;3.70;2.70;;;;;;;;;;4995868;28;20439;-62
2023/09/06 09:12:26;;;;;;;3.57;3.27;;;;;;;;;;4996236;28;20841;-64
2023/09/06 09:14:54;;;;;;;3.27;2.93;;;;;;;;;;4995674;28;20435;-62
2023/09/06 09:17:22;;;;;;;5.57;3.00;;;;;;;;;;4995207;28;20458;-62
2023/09/06 09:19:56;;;;;;;5.63;3.20;;;;;;;;;;4995414;28;20451;-62
2023/09/06 09:22:25;;;;;;;3.63;3.10;;;;;;;;;;4996206;28;20420;-62
2023/09/06 09:24:58;;;;;;;5.60;3.20;;;;;;;;;;4994971;28;20457;-62
2023/09/06 09:27:26;;;;;;;4.83;2.73;;;;;;;;;;4995716;28;20443;-62
2023/09/06 09:29:54;;;;;;;6.37;3.27;;;;;;;;;;4995400;28;20869;-62
2023/09/06 09:32:21;;;;;;;3.87;3.10;;;;;;;;;;4995874;28;20528;-62
2023/09/06 09:34:48;;;;;;;6.17;3.27;;;;;;;;;;4995498;28;20440;-62
2023/09/06 09:37:16;;;;;;;3.17;2.87;;;;;;;;;;4995492;28;20450;-62
2023/09/06 09:39:44;;;;;;;3.40;3.20;;;;;;;;;;4995077;28;21032;-62
2023/09/06 09:42:12;;;;;;;5.00;2.90;;;;;;;;;;4995452;28;20447;-61
2023/09/06 09:44:40;;;;;;;5.07;3.20;;;;;;;;;;4995648;28;20926;-62
2023/09/06 09:47:12;;;;;;;3.53;3.13;;;;;;;;;;4995184;28;20987;-62
2023/09/06 09:49:40;;;;;;;8.63;2.63;;;;;;;;;;4995076;28;20937;-62
2023/09/06 09:52:10;;;;;;;5.60;3.00;;;;;;;;;;4995336;28;20794;-62
2023/09/06 09:54:39;;;;;;;3.23;2.97;;;;;;;;;;4995270;28;20519;-62
2023/09/06 09:57:09;;;;;;;6.57;4.13;;;;;;;;;;4995031;28;20892;-62
2023/09/06 09:59:37;;;;;;;3.77;2.97;;;;;;;;;;4994934;28;20903;-61
2023/09/06 10:02:05;;;;;;;4.00;3.17;;;;;;;;;;4994568;28;20513;-62
2023/09/06 10:04:36;;;;;;;3.53;3.23;;;;;;;;;;4994551;28;20484;-62
2023/09/06 10:07:06;;;;;;;3.60;2.80;;;;;;;;;;4994615;28;20432;-61
2023/09/06 10:09:36;;;;;;;2.80;2.60;;;;;;;;;;4995357;28;20479;-63
2023/09/06 10:12:03;;;;;;;3.20;2.90;;;;;;;;;;4994745;28;20442;-62
2023/09/06 10:14:34;;;;;;;3.47;3.17;;;;;;;;;;4995021;28;20455;-62
2023/09/06 10:17:02;;;;;;;3.83;3.37;;;;;;;;;;4994919;28;20519;-62
2023/09/06 10:19:29;;;;;;;5.20;2.80;;;;;;;;;;4994849;28;20529;-62
2023/09/06 10:21:57;;;;;;;5.10;2.90;;;;;;;;;;4994843;28;20537;-62
2023/09/06 10:24:24;;;;;;;3.10;2.80;;;;;;;;;;4994743;28;20575;-62
2023/09/06 10:26:55;;;;;;;4.63;3.27;;;;;;;;;;4994396;28;20967;-62
2023/09/06 10:29:25;;;;;;;5.60;2.93;;;;;;;;;;4994477;28;20524;-62
2023/09/06 10:31:54;;;;;;;5.13;3.73;;;;;;;;;;4994283;28;20524;-62
2023/09/06 10:34:21;;;;;;;3.53;3.23;;;;;;;;;;4994844;28;20463;-62
2023/09/06 10:36:53;;;;;;;3.77;3.33;;;;;;;;;;4994103;28;20482;-62
2023/09/06 10:39:22;;;;;;;5.80;3.30;;;;;;;;;;4994803;28;20496;-62
2023/09/06 10:42:07;;;;;;;3.20;2.67;;;;;;;;;;4993383;28;20450;-62
2023/09/06 10:44:50;;;;;;;3.30;2.80;;;;;;;;;;4994379;28;20662;-62
2023/09/06 10:47:28;;;;;;;3.33;3.03;;;;;;;;;;4993890;28;21021;-62
2023/09/06 10:50:08;;;;;;;5.90;2.97;;;;;;;;;;4994214;28;20950;-62
2023/09/06 10:52:42;;;;;;;3.10;2.60;;;;;;;;;;4994272;28;20515;-61
2023/09/06 10:55:13;;;;;;;3.63;3.33;;;;;;;;;;4994357;28;20446;-62
2023/09/06 10:57:48;;;;;;;3.37;3.00;;;;;;;;;;4993805;28;20446;-62
2023/09/06 11:00:18;;;;;;;4.33;2.80;;;;;;;;;;4993844;28;20462;-62
2023/09/06 11:03:07;;;;;;;3.23;2.90;;;;;;;;;;4993851;28;20512;-62
2023/09/06 11:05:35;;;;;;;2.63;2.43;;;;;;;;;;4993615;28;20522;-62
2023/09/06 11:08:04;;;;;;;6.80;2.73;;;;;;;;;;4994021;28;20502;-62
2023/09/06 11:10:31;;;;;;;4.03;3.17;;;;;;;;;;4993648;28;20501;-62
2023/09/06 11:12:58;;;;;;;3.43;3.13;;;;;;;;;;4993802;28;20774;-61
2023/09/06 11:15:26;;;;;;;2.63;2.43;;;;;;;;;;4993884;28;20450;-62
2023/09/06 11:18:00;;;;;;;4.50;2.60;;;;;;;;;;4993430;28;20510;-62
2023/09/06 11:20:27;;;;;;;3.23;2.50;;;;;;;;;;4994470;28;20428;-61
2023/09/06 11:22:55;;;;;;;3.30;2.93;;;;;;;;;;4993459;28;20527;-62
2023/09/06 11:25:23;;;;;;;3.90;3.17;;;;;;;;;;4993734;28;20461;-62
2023/09/06 11:27:51;;;;;;;2.40;2.20;;;;;;;;;;4993268;28;20457;-63
2023/09/06 11:30:22;;;;;;;4.17;3.30;;;;;;;;;;4993928;28;20453;-62
2023/09/06 11:32:49;;;;;;;3.60;3.10;;;;;;;;;;4993686;28;20425;-63
2023/09/06 11:35:22;;;;;;;4.13;2.67;;;;;;;;;;4993395;28;20538;-62
2023/09/06 11:37:51;;;;;;;2.83;2.53;;;;;;;;;;4993464;28;20521;-63
2023/09/06 11:40:20;;;;;;;3.27;3.07;;;;;;;;;;4993478;28;20466;-63
2023/09/06 11:42:50;;;;;;;6.43;3.17;;;;;;;;;;4993382;28;20443;-62
2023/09/06 11:45:19;;;;;;;3.03;2.83;;;;;;;;;;4993018;28;20535;-62
2023/09/06 11:47:47;;;;;;;4.50;3.20;;;;;;;;;;4993238;28;20451;-61
2023/09/06 11:50:18;;;;;;;4.47;3.40;;;;;;;;;;4993789;28;20530;-61
2023/09/06 11:52:48;;;;;;;8.90;3.40;;;;;;;;;;4993418;28;20444;-62
2023/09/06 11:55:16;;;;;;;3.43;3.10;;;;;;;;;;4997007;28;20794;-62
2023/09/06 11:57:49;;;;;;;4.53;4.00;;;;;;;;;;4997381;28;20503;-62
2023/09/06 12:00:25;;;;;;;3.40;3.10;;;;;;;;;;4997622;28;20487;-62
2023/09/06 12:02:53;;;;;;;7.10;3.70;;;;;;;;;;4996911;28;20490;-62
2023/09/06 12:05:24;;;;;;;13.73;3.10;;;;;;;;;;4997276;28;20503;-62
2023/09/06 12:07:54;;;;;;;3.13;2.83;;;;;;;;;;4997475;28;20437;-62
2023/09/06 12:10:22;;;;;;;3.07;2.87;;;;;;;;;;4997870;28;20428;-63
2023/09/06 12:12:51;;;;;;;3.00;2.73;;;;;;;;;;4997392;28;20444;-62
2023/09/06 12:15:20;;;;;;;5.80;5.03;;;;;;;;;;4997210;28;20454;-63
2023/09/06 12:17:47;;;;;;;3.97;3.67;;;;;;;;;;4997120;28;20450;-63
2023/09/06 12:20:22;;;;;;;4.33;3.70;;;;;;;;;;4997495;28;20538;-63
2023/09/06 12:22:50;;;;;;;4.97;4.57;;;;;;;;;;4997039;28;20804;-63
2023/09/06 12:25:19;;;;;;;3.17;2.87;;;;;;;;;;4996603;28;20462;-63
2023/09/06 12:27:46;;;;;;;3.20;2.60;;;;;;;;;;4996715;28;20419;-61
2023/09/06 12:30:16;;;;;;;6.53;3.80;;;;;;;;;;4996366;28;20546;-63
2023/09/06 12:32:43;;;;;;;6.80;2.90;;;;;;;;;;4996119;28;20530;-62
2023/09/06 12:35:11;;;;;;;8.27;4.57;;;;;;;;;;4996729;28;20425;-63
2023/09/06 12:37:39;;;;;;;3.97;3.50;;;;;;;;;;4996652;28;20417;-62
2023/09/06 12:40:10;;;;;;;6.50;4.80;;;;;;;;;;4996353;28;20926;-61
2023/09/06 12:42:39;;;;;;;4.13;2.73;;;;;;;;;;5004388;28;20797;-63
2023/09/06 12:45:07;;;;;;;3.93;2.90;;;;;;;;;;5015595;28;20816;-63
2023/09/06 12:47:35;;;;;;;2.70;2.50;;;;;;;;;;5015131;28;20421;-63
2023/09/06 12:50:03;;;;;;;3.43;2.90;;;;;;;;;;5015615;28;20530;-63
2023/09/06 12:52:31;;;;;;;5.03;2.97;;;;;;;;;;5015524;28;20455;-63
2023/09/06 12:54:58;;;;;;;4.13;3.40;;;;;;;;;;5008298;28;20469;-64
2023/09/06 12:57:25;;;;;;;5.83;3.00;;;;;;;;;;4995597;28;20415;-60
2023/09/06 12:59:54;;;;;;;6.23;3.00;;;;;;;;;;4995045;28;20454;-61
2023/09/06 13:02:21;;;;;;;6.20;3.27;;;;;;;;;;4995766;28;20957;-61
2023/09/06 13:04:48;;;;;;;6.90;2.80;;;;;;;;;;4995515;28;20573;-60
2023/09/06 13:07:15;;;;;;;3.70;2.70;;;;;;;;;;4996231;28;20422;-61
2023/09/06 13:09:43;;;;;;;2.73;2.53;;;;;;;;;;4995727;28;20451;-61
2023/09/06 13:12:10;;;;;;;3.60;3.30;;;;;;;;;;5006353;28;20866;-61
2023/09/06 13:14:38;;;;;;;3.30;2.67;;;;;;;;;;5015607;28;20417;-61
2023/09/06 13:17:06;;;;;;;4.03;3.10;;;;;;;;;;5015699;28;20448;-61
2023/09/06 13:19:33;;;;;;;3.67;2.40;;;;;;;;;;5014886;28;20453;-61
2023/09/06 13:22:01;;;;;;;2.77;2.53;;;;;;;;;;5015510;28;20536;-61
2023/09/06 13:24:33;;;;;;;3.63;2.70;;;;;;;;;;5015280;28;20522;-61
2023/09/06 13:27:00;;;;;;;3.10;2.80;;;;;;;;;;5015524;28;20435;-61
2023/09/06 13:29:27;;;;;;;5.67;2.77;;;;;;;;;;5015197;28;20547;-61
2023/09/06 13:31:54;;;;;;;16.73;14.40;;;;;;;;;;5014982;28;20439;-61
2023/09/06 13:34:23;;;;;;;10.40;5.87;;;;;;;;;;5015375;28;20880;-61
2023/09/06 13:36:51;;;;;;;3.13;2.93;;;;;;;;;;5015487;28;20413;-61
2023/09/06 13:39:18;;;;;;;5.30;3.20;;;;;;;;;;5015119;28;20522;-61
2023/09/06 13:41:47;;;;;;;2.90;2.47;;;;;;;;;;5014388;28;20441;-61
2023/09/06 13:44:14;;;;;;;4.17;3.03;;;;;;;;;;5014806;28;20485;-62
2023/09/06 13:46:41;;;;;;;3.07;2.83;;;;;;;;;;5014591;28;20470;-61
2023/09/06 13:49:09;;;;;;;3.10;2.90;;;;;;;;;;5014719;28;20502;-61
2023/09/06 13:51:37;;;;;;;6.47;3.13;;;;;;;;;;5014636;28;20417;-61
2023/09/06 13:54:05;;;;;;;2.80;2.60;;;;;;;;;;5014420;28;20518;-61
2023/09/06 13:56:33;;;;;;;3.53;3.23;;;;;;;;;;5014559;28;20443;-61
2023/09/06 13:59:00;;;;;;;3.30;2.70;;;;;;;;;;5014538;28;20453;-61
2023/09/06 14:01:28;;;;;;;4.40;3.30;;;;;;;;;;5014738;28;20515;-61
2023/09/06 14:03:55;;;;;;;12.67;10.50;;;;;;;;;;5014034;28;20548;-62
2023/09/06 14:06:22;;;;;;;5.27;4.60;;;;;;;;;;5014634;28;20535;-61
2023/09/06 14:08:51;;;;;;;3.20;2.90;;;;;;;;;;5014696;28;20480;-61
2023/09/06 14:11:18;;;;;;;12.77;3.10;;;;;;;;;;5014591;28;20422;-61
2023/09/06 14:13:45;;;;;;;4.87;3.00;;;;;;;;;;5013653;28;20447;-61
2023/09/06 14:16:13;;;;;;;4.30;2.80;;;;;;;;;;5013262;28;20990;-61
2023/09/06 14:18:40;;;;;;;6.60;2.70;;;;;;;;;;5014365;28;20443;-61
2023/09/06 14:21:07;;;;;;;6.07;3.13;;;;;;;;;;5013959;28;20539;-61
2023/09/06 14:23:34;;;;;;;7.40;2.93;;;;;;;;;;5013840;28;20916;-61
2023/09/06 14:26:03;;;;;;;5.93;5.33;;;;;;;;;;5013996;28;20478;-61
2023/09/06 14:28:30;;;;;;;6.43;5.60;;;;;;;;;;5013693;28;20475;-61
2023/09/06 14:30:57;;;;;;;5.23;4.20;;;;;;;;;;5014038;28;20432;-62
2023/09/06 14:33:25;;;;;;;4.33;3.57;;;;;;;;;;5014079;28;20454;-60
2023/09/06 14:35:52;;;;;;;3.53;2.80;;;;;;;;;;5013722;28;20457;-61
2023/09/06 14:38:21;;;;;;;3.50;3.20;;;;;;;;;;5014465;28;20444;-61
2023/09/06 14:40:49;;;;;;;3.60;3.30;;;;;;;;;;5013986;28;20532;-61
2023/09/06 14:43:19;;;;;;;4.23;3.10;;;;;;;;;;5013376;28;20812;-61
2023/09/06 14:45:46;;;;;;;4.43;2.90;;;;;;;;;;5013598;28;20486;-60
2023/09/06 14:48:14;;;;;;;3.27;2.97;;;;;;;;;;5013383;28;21022;-61